sensor_id;sensor_type;location;lat;lon;timestamp;P1;durP1;ratioP1;P2;durP2;ratioP2
72037;SDS011;59900;50.788;12.904;2023-05-16T00:02:20;12.03;;;7.63;;
72037;SDS011;59900;50.788;12.904;2023-05-16T00:04:46;12.87;;;7.70;;
72037;SDS011;59900;50.788;12.904;2023-05-16T00:07:11;14.40;;;7.80;;
72037;SDS011;59900;50.788;12.904;2023-05-16T00:09:36;12.13;;;8.03;;
72037;SDS011;59900;50.788;12.904;2023-05-16T00:12:02;11.57;;;7.17;;
72037;SDS011;59900;50.788;12.904;2023-05-16T00:14:27;11.10;;;7.32;;
72037;SDS011;59900;50.788;12.904;2023-05-16T00:16:52;11.80;;;7.70;;
72037;SDS011;59900;50.788;12.904;2023-05-16T00:19:18;14.37;;;8.43;;
72037;SDS011;59900;50.788;12.904;2023-05-16T00:21:44;11.80;;;7.70;;
72037;SDS011;59900;50.788;12.904;2023-05-16T00:24:09;13.00;;;8.10;;
72037;SDS011;59900;50.788;12.904;2023-05-16T00:26:35;12.83;;;7.83;;
72037;SDS011;59900;50.788;12.904;2023-05-16T00:29:00;13.73;;;7.93;;
72037;SDS011;59900;50.788;12.904;2023-05-16T00:31:26;13.43;;;8.65;;
72037;SDS011;59900;50.788;12.904;2023-05-16T00:33:51;12.70;;;8.30;;
72037;SDS011;59900;50.788;12.904;2023-05-16T00:36:17;13.60;;;8.55;;
72037;SDS011;59900;50.788;12.904;2023-05-16T00:38:42;12.77;;;8.10;;
72037;SDS011;59900;50.788;12.904;2023-05-16T00:41:07;13.50;;;8.20;;
72037;SDS011;59900;50.788;12.904;2023-05-16T00:43:32;13.60;;;7.90;;
72037;SDS011;59900;50.788;12.904;2023-05-16T00:45:58;11.57;;;7.33;;
72037;SDS011;59900;50.788;12.904;2023-05-16T00:48:24;12.30;;;7.53;;
72037;SDS011;59900;50.788;12.904;2023-05-16T00:50:49;14.95;;;7.75;;
72037;SDS011;59900;50.788;12.904;2023-05-16T00:53:16;12.18;;;7.95;;
72037;SDS011;59900;50.788;12.904;2023-05-16T00:55:42;12.30;;;8.00;;
72037;SDS011;59900;50.788;12.904;2023-05-16T00:58:08;12.82;;;8.05;;
72037;SDS011;59900;50.788;12.904;2023-05-16T01:00:34;13.10;;;8.13;;
72037;SDS011;59900;50.788;12.904;2023-05-16T01:03:00;16.52;;;9.00;;
72037;SDS011;59900;50.788;12.904;2023-05-16T01:05:25;13.13;;;8.50;;
72037;SDS011;59900;50.788;12.904;2023-05-16T01:07:51;13.45;;;8.25;;
72037;SDS011;59900;50.788;12.904;2023-05-16T01:10:16;14.23;;;8.47;;
72037;SDS011;59900;50.788;12.904;2023-05-16T01:13:08;11.83;;;7.63;;
72037;SDS011;59900;50.788;12.904;2023-05-16T01:15:46;12.80;;;8.20;;
72037;SDS011;59900;50.788;12.904;2023-05-16T01:18:40;15.88;;;8.65;;
72037;SDS011;59900;50.788;12.904;2023-05-16T01:21:15;15.25;;;7.90;;
72037;SDS011;59900;50.788;12.904;2023-05-16T01:23:55;12.30;;;8.07;;
72037;SDS011;59900;50.788;12.904;2023-05-16T01:26:22;14.80;;;9.13;;
72037;SDS011;59900;50.788;12.904;2023-05-16T01:28:51;15.25;;;8.13;;
72037;SDS011;59900;50.788;12.904;2023-05-16T01:31:16;14.57;;;8.38;;
72037;SDS011;59900;50.788;12.904;2023-05-16T01:33:42;14.30;;;9.13;;
72037;SDS011;59900;50.788;12.904;2023-05-16T01:39:06;14.17;;;8.20;;
72037;SDS011;59900;50.788;12.904;2023-05-16T01:44:22;15.25;;;8.15;;
72037;SDS011;59900;50.788;12.904;2023-05-16T01:46:55;13.82;;;8.80;;
72037;SDS011;59900;50.788;12.904;2023-05-16T01:52:11;13.80;;;8.07;;
72037;SDS011;59900;50.788;12.904;2023-05-16T01:54:43;14.55;;;8.32;;
72037;SDS011;59900;50.788;12.904;2023-05-16T01:57:12;15.60;;;8.95;;
72037;SDS011;59900;50.788;12.904;2023-05-16T01:59:38;14.48;;;8.82;;
72037;SDS011;59900;50.788;12.904;2023-05-16T02:02:04;16.60;;;9.25;;
72037;SDS011;59900;50.788;12.904;2023-05-16T02:04:30;15.33;;;8.60;;
72037;SDS011;59900;50.788;12.904;2023-05-16T02:06:55;13.27;;;8.40;;
72037;SDS011;59900;50.788;12.904;2023-05-16T02:09:21;13.15;;;8.02;;
72037;SDS011;59900;50.788;12.904;2023-05-16T02:11:46;14.97;;;9.13;;
72037;SDS011;59900;50.788;12.904;2023-05-16T02:14:11;14.60;;;8.77;;
72037;SDS011;59900;50.788;12.904;2023-05-16T02:16:37;14.17;;;8.33;;
72037;SDS011;59900;50.788;12.904;2023-05-16T02:19:02;12.83;;;8.20;;
72037;SDS011;59900;50.788;12.904;2023-05-16T02:21:27;12.73;;;8.00;;
72037;SDS011;59900;50.788;12.904;2023-05-16T02:23:52;15.13;;;8.43;;
72037;SDS011;59900;50.788;12.904;2023-05-16T02:26:18;12.93;;;7.97;;
72037;SDS011;59900;50.788;12.904;2023-05-16T02:28:43;14.50;;;8.70;;
72037;SDS011;59900;50.788;12.904;2023-05-16T02:31:08;14.23;;;7.83;;
72037;SDS011;59900;50.788;12.904;2023-05-16T02:33:34;13.70;;;8.00;;
72037;SDS011;59900;50.788;12.904;2023-05-16T02:35:59;13.40;;;8.00;;
72037;SDS011;59900;50.788;12.904;2023-05-16T02:38:25;13.07;;;8.10;;
72037;SDS011;59900;50.788;12.904;2023-05-16T02:40:50;15.27;;;8.37;;
72037;SDS011;59900;50.788;12.904;2023-05-16T02:43:15;13.73;;;7.97;;
72037;SDS011;59900;50.788;12.904;2023-05-16T02:45:40;17.47;;;7.57;;
72037;SDS011;59900;50.788;12.904;2023-05-16T02:48:06;14.10;;;7.50;;
72037;SDS011;59900;50.788;12.904;2023-05-16T02:50:32;14.10;;;7.67;;
72037;SDS011;59900;50.788;12.904;2023-05-16T02:52:58;16.67;;;8.40;;
72037;SDS011;59900;50.788;12.904;2023-05-16T02:55:24;15.23;;;7.60;;
72037;SDS011;59900;50.788;12.904;2023-05-16T02:57:50;13.13;;;8.02;;
72037;SDS011;59900;50.788;12.904;2023-05-16T03:00:15;16.63;;;8.93;;
72037;SDS011;59900;50.788;12.904;2023-05-16T03:02:41;13.52;;;8.07;;
72037;SDS011;59900;50.788;12.904;2023-05-16T03:05:06;13.17;;;7.90;;
72037;SDS011;59900;50.788;12.904;2023-05-16T03:07:32;15.93;;;8.27;;
72037;SDS011;59900;50.788;12.904;2023-05-16T03:09:57;17.03;;;8.47;;
72037;SDS011;59900;50.788;12.904;2023-05-16T03:12:23;16.73;;;8.70;;
72037;SDS011;59900;50.788;12.904;2023-05-16T03:14:48;15.57;;;8.67;;
72037;SDS011;59900;50.788;12.904;2023-05-16T03:17:13;15.90;;;8.33;;
72037;SDS011;59900;50.788;12.904;2023-05-16T03:19:38;14.90;;;8.53;;
72037;SDS011;59900;50.788;12.904;2023-05-16T03:22:04;14.53;;;8.70;;
72037;SDS011;59900;50.788;12.904;2023-05-16T03:24:29;15.93;;;9.80;;
72037;SDS011;59900;50.788;12.904;2023-05-16T03:26:54;17.30;;;9.10;;
72037;SDS011;59900;50.788;12.904;2023-05-16T03:29:20;15.83;;;9.10;;
72037;SDS011;59900;50.788;12.904;2023-05-16T03:31:45;14.50;;;9.20;;
72037;SDS011;59900;50.788;12.904;2023-05-16T03:34:10;14.67;;;8.47;;
72037;SDS011;59900;50.788;12.904;2023-05-16T03:36:35;16.70;;;9.07;;
72037;SDS011;59900;50.788;12.904;2023-05-16T03:39:02;16.00;;;9.75;;
72037;SDS011;59900;50.788;12.904;2023-05-16T03:41:27;14.40;;;9.17;;
72037;SDS011;59900;50.788;12.904;2023-05-16T03:43:53;15.00;;;9.23;;
72037;SDS011;59900;50.788;12.904;2023-05-16T03:46:18;14.57;;;8.93;;
72037;SDS011;59900;50.788;12.904;2023-05-16T03:48:43;16.20;;;9.17;;
72037;SDS011;59900;50.788;12.904;2023-05-16T03:51:09;18.23;;;9.40;;
72037;SDS011;59900;50.788;12.904;2023-05-16T03:53:34;16.10;;;9.27;;
72037;SDS011;59900;50.788;12.904;2023-05-16T03:55:59;15.43;;;8.63;;
72037;SDS011;59900;50.788;12.904;2023-05-16T03:58:24;15.93;;;9.10;;
72037;SDS011;59900;50.788;12.904;2023-05-16T04:00:50;17.43;;;9.33;;
72037;SDS011;59900;50.788;12.904;2023-05-16T04:03:15;13.27;;;8.50;;
72037;SDS011;59900;50.788;12.904;2023-05-16T04:05:40;16.60;;;8.50;;
72037;SDS011;59900;50.788;12.904;2023-05-16T04:08:05;15.00;;;8.37;;
72037;SDS011;59900;50.788;12.904;2023-05-16T04:10:31;15.73;;;8.80;;
72037;SDS011;59900;50.788;12.904;2023-05-16T04:12:56;13.83;;;8.30;;
72037;SDS011;59900;50.788;12.904;2023-05-16T04:15:21;12.97;;;8.17;;
72037;SDS011;59900;50.788;12.904;2023-05-16T04:17:47;13.80;;;8.63;;
72037;SDS011;59900;50.788;12.904;2023-05-16T04:20:12;17.77;;;8.93;;
72037;SDS011;59900;50.788;12.904;2023-05-16T04:22:38;14.80;;;8.60;;
72037;SDS011;59900;50.788;12.904;2023-05-16T04:25:03;14.43;;;8.60;;
72037;SDS011;59900;50.788;12.904;2023-05-16T04:27:28;14.43;;;8.90;;
72037;SDS011;59900;50.788;12.904;2023-05-16T04:29:54;18.57;;;9.20;;
72037;SDS011;59900;50.788;12.904;2023-05-16T04:32:20;15.57;;;8.73;;
72037;SDS011;59900;50.788;12.904;2023-05-16T04:34:45;15.70;;;8.83;;
72037;SDS011;59900;50.788;12.904;2023-05-16T04:37:12;17.65;;;9.30;;
72037;SDS011;59900;50.788;12.904;2023-05-16T04:39:38;17.13;;;9.63;;
72037;SDS011;59900;50.788;12.904;2023-05-16T04:42:03;15.43;;;9.13;;
72037;SDS011;59900;50.788;12.904;2023-05-16T04:44:29;17.92;;;9.55;;
72037;SDS011;59900;50.788;12.904;2023-05-16T04:46:54;15.97;;;9.07;;
72037;SDS011;59900;50.788;12.904;2023-05-16T04:49:20;16.77;;;9.70;;
72037;SDS011;59900;50.788;12.904;2023-05-16T04:51:45;18.08;;;9.68;;
72037;SDS011;59900;50.788;12.904;2023-05-16T04:54:11;20.80;;;9.93;;
72037;SDS011;59900;50.788;12.904;2023-05-16T04:56:36;17.03;;;9.70;;
72037;SDS011;59900;50.788;12.904;2023-05-16T04:59:01;20.33;;;9.70;;
72037;SDS011;59900;50.788;12.904;2023-05-16T05:01:28;17.63;;;9.63;;
72037;SDS011;59900;50.788;12.904;2023-05-16T05:03:53;18.40;;;10.00;;
72037;SDS011;59900;50.788;12.904;2023-05-16T05:06:19;16.50;;;9.13;;
72037;SDS011;59900;50.788;12.904;2023-05-16T05:08:44;17.20;;;10.13;;
72037;SDS011;59900;50.788;12.904;2023-05-16T05:11:09;17.70;;;10.33;;
72037;SDS011;59900;50.788;12.904;2023-05-16T05:13:35;16.73;;;10.15;;
72037;SDS011;59900;50.788;12.904;2023-05-16T05:16:00;19.43;;;10.80;;
72037;SDS011;59900;50.788;12.904;2023-05-16T05:18:28;19.50;;;10.82;;
72037;SDS011;59900;50.788;12.904;2023-05-16T05:20:53;22.00;;;12.10;;
72037;SDS011;59900;50.788;12.904;2023-05-16T05:23:19;19.67;;;11.53;;
72037;SDS011;59900;50.788;12.904;2023-05-16T05:25:44;20.27;;;12.03;;
72037;SDS011;59900;50.788;12.904;2023-05-16T05:28:10;23.07;;;13.17;;
72037;SDS011;59900;50.788;12.904;2023-05-16T05:30:35;24.53;;;14.00;;
72037;SDS011;59900;50.788;12.904;2023-05-16T05:33:00;24.95;;;13.88;;
72037;SDS011;59900;50.788;12.904;2023-05-16T05:35:26;27.30;;;14.03;;
72037;SDS011;59900;50.788;12.904;2023-05-16T05:37:51;23.40;;;13.27;;
72037;SDS011;59900;50.788;12.904;2023-05-16T05:40:16;25.77;;;14.70;;
72037;SDS011;59900;50.788;12.904;2023-05-16T05:42:42;26.37;;;14.30;;
72037;SDS011;59900;50.788;12.904;2023-05-16T05:45:07;29.37;;;13.80;;
72037;SDS011;59900;50.788;12.904;2023-05-16T05:47:32;25.30;;;13.57;;
72037;SDS011;59900;50.788;12.904;2023-05-16T05:49:58;27.87;;;14.37;;
72037;SDS011;59900;50.788;12.904;2023-05-16T05:52:23;24.30;;;13.20;;
72037;SDS011;59900;50.788;12.904;2023-05-16T05:54:48;26.40;;;13.20;;
72037;SDS011;59900;50.788;12.904;2023-05-16T05:57:14;26.87;;;14.23;;
72037;SDS011;59900;50.788;12.904;2023-05-16T05:59:39;27.70;;;14.10;;
72037;SDS011;59900;50.788;12.904;2023-05-16T06:02:05;28.60;;;14.67;;
72037;SDS011;59900;50.788;12.904;2023-05-16T06:04:30;28.35;;;14.82;;
72037;SDS011;59900;50.788;12.904;2023-05-16T06:06:55;29.93;;;15.17;;
72037;SDS011;59900;50.788;12.904;2023-05-16T06:09:20;29.73;;;14.70;;
72037;SDS011;59900;50.788;12.904;2023-05-16T06:11:46;26.77;;;13.93;;
72037;SDS011;59900;50.788;12.904;2023-05-16T06:14:12;27.73;;;14.30;;
72037;SDS011;59900;50.788;12.904;2023-05-16T06:16:39;27.55;;;13.80;;
72037;SDS011;59900;50.788;12.904;2023-05-16T06:19:04;26.90;;;14.13;;
72037;SDS011;59900;50.788;12.904;2023-05-16T06:21:29;29.77;;;13.97;;
72037;SDS011;59900;50.788;12.904;2023-05-16T06:23:55;30.77;;;15.60;;
72037;SDS011;59900;50.788;12.904;2023-05-16T06:26:20;27.90;;;14.77;;
72037;SDS011;59900;50.788;12.904;2023-05-16T06:28:46;30.63;;;15.05;;
72037;SDS011;59900;50.788;12.904;2023-05-16T06:31:11;28.33;;;14.43;;
72037;SDS011;59900;50.788;12.904;2023-05-16T06:33:37;28.37;;;15.23;;
72037;SDS011;59900;50.788;12.904;2023-05-16T06:36:02;28.60;;;14.30;;
72037;SDS011;59900;50.788;12.904;2023-05-16T06:38:28;31.15;;;15.15;;
72037;SDS011;59900;50.788;12.904;2023-05-16T06:40:53;28.13;;;14.67;;
72037;SDS011;59900;50.788;12.904;2023-05-16T06:43:19;27.00;;;14.47;;
72037;SDS011;59900;50.788;12.904;2023-05-16T06:45:44;29.30;;;14.70;;
72037;SDS011;59900;50.788;12.904;2023-05-16T06:48:10;28.52;;;13.88;;
72037;SDS011;59900;50.788;12.904;2023-05-16T06:50:37;31.38;;;14.25;;
72037;SDS011;59900;50.788;12.904;2023-05-16T06:53:02;28.67;;;14.80;;
72037;SDS011;59900;50.788;12.904;2023-05-16T06:55:29;24.77;;;14.07;;
72037;SDS011;59900;50.788;12.904;2023-05-16T06:57:54;32.37;;;14.50;;
72037;SDS011;59900;50.788;12.904;2023-05-16T07:00:20;30.38;;;15.38;;
72037;SDS011;59900;50.788;12.904;2023-05-16T07:02:45;28.80;;;14.93;;
72037;SDS011;59900;50.788;12.904;2023-05-16T07:05:10;30.93;;;15.90;;
72037;SDS011;59900;50.788;12.904;2023-05-16T07:07:36;29.53;;;15.90;;
72037;SDS011;59900;50.788;12.904;2023-05-16T07:10:02;29.30;;;15.33;;
72037;SDS011;59900;50.788;12.904;2023-05-16T07:12:27;31.40;;;15.38;;
72037;SDS011;59900;50.788;12.904;2023-05-16T07:14:52;30.77;;;15.33;;
72037;SDS011;59900;50.788;12.904;2023-05-16T07:17:18;29.73;;;14.97;;
72037;SDS011;59900;50.788;12.904;2023-05-16T07:19:43;29.27;;;14.80;;
72037;SDS011;59900;50.788;12.904;2023-05-16T07:22:08;30.00;;;14.73;;
72037;SDS011;59900;50.788;12.904;2023-05-16T07:24:34;28.13;;;14.10;;
72037;SDS011;59900;50.788;12.904;2023-05-16T07:27:00;26.33;;;13.90;;
72037;SDS011;59900;50.788;12.904;2023-05-16T07:29:25;25.37;;;12.67;;
72037;SDS011;59900;50.788;12.904;2023-05-16T07:31:50;23.70;;;12.17;;
72037;SDS011;59900;50.788;12.904;2023-05-16T07:34:16;25.37;;;13.10;;
72037;SDS011;59900;50.788;12.904;2023-05-16T07:36:41;25.70;;;13.87;;
72037;SDS011;59900;50.788;12.904;2023-05-16T07:39:06;25.53;;;12.83;;
72037;SDS011;59900;50.788;12.904;2023-05-16T07:41:31;25.35;;;11.30;;
72037;SDS011;59900;50.788;12.904;2023-05-16T07:43:57;24.60;;;12.77;;
72037;SDS011;59900;50.788;12.904;2023-05-16T07:46:22;22.57;;;11.33;;
72037;SDS011;59900;50.788;12.904;2023-05-16T07:48:47;23.10;;;12.17;;
72037;SDS011;59900;50.788;12.904;2023-05-16T07:51:13;22.73;;;11.37;;
72037;SDS011;59900;50.788;12.904;2023-05-16T07:53:38;21.17;;;10.93;;
72037;SDS011;59900;50.788;12.904;2023-05-16T07:56:03;24.33;;;11.07;;
72037;SDS011;59900;50.788;12.904;2023-05-16T07:58:29;21.00;;;11.15;;
72037;SDS011;59900;50.788;12.904;2023-05-16T08:00:54;24.57;;;12.20;;
72037;SDS011;59900;50.788;12.904;2023-05-16T08:03:20;21.10;;;10.50;;
72037;SDS011;59900;50.788;12.904;2023-05-16T08:05:45;22.10;;;11.80;;
72037;SDS011;59900;50.788;12.904;2023-05-16T08:08:10;19.93;;;11.03;;
72037;SDS011;59900;50.788;12.904;2023-05-16T08:10:35;20.30;;;11.03;;
72037;SDS011;59900;50.788;12.904;2023-05-16T08:13:01;21.13;;;11.50;;
72037;SDS011;59900;50.788;12.904;2023-05-16T08:15:26;22.53;;;11.33;;
72037;SDS011;59900;50.788;12.904;2023-05-16T08:17:53;20.70;;;11.23;;
72037;SDS011;59900;50.788;12.904;2023-05-16T08:20:21;20.88;;;11.88;;
72037;SDS011;59900;50.788;12.904;2023-05-16T08:22:46;21.23;;;11.53;;
72037;SDS011;59900;50.788;12.904;2023-05-16T08:25:12;23.77;;;12.10;;
72037;SDS011;59900;50.788;12.904;2023-05-16T08:27:37;21.70;;;12.77;;
72037;SDS011;59900;50.788;12.904;2023-05-16T08:30:02;20.03;;;10.80;;
72037;SDS011;59900;50.788;12.904;2023-05-16T08:32:28;22.23;;;11.02;;
72037;SDS011;59900;50.788;12.904;2023-05-16T08:34:53;25.97;;;12.60;;
72037;SDS011;59900;50.788;12.904;2023-05-16T08:37:18;23.97;;;11.93;;
72037;SDS011;59900;50.788;12.904;2023-05-16T08:39:44;26.13;;;13.07;;
72037;SDS011;59900;50.788;12.904;2023-05-16T08:42:10;20.58;;;10.75;;
72037;SDS011;59900;50.788;12.904;2023-05-16T08:44:35;22.90;;;11.73;;
72037;SDS011;59900;50.788;12.904;2023-05-16T08:47:05;25.73;;;12.30;;
72037;SDS011;59900;50.788;12.904;2023-05-16T08:49:42;22.85;;;11.57;;
72037;SDS011;59900;50.788;12.904;2023-05-16T08:52:08;21.33;;;11.50;;
72037;SDS011;59900;50.788;12.904;2023-05-16T08:54:34;21.35;;;11.32;;
72037;SDS011;59900;50.788;12.904;2023-05-16T08:57:01;22.77;;;12.15;;
72037;SDS011;59900;50.788;12.904;2023-05-16T08:59:27;25.05;;;12.05;;
72037;SDS011;59900;50.788;12.904;2023-05-16T09:01:52;23.47;;;10.97;;
72037;SDS011;59900;50.788;12.904;2023-05-16T09:04:19;24.45;;;11.45;;
72037;SDS011;59900;50.788;12.904;2023-05-16T09:06:44;20.87;;;11.30;;
72037;SDS011;59900;50.788;12.904;2023-05-16T09:09:10;20.10;;;10.87;;
72037;SDS011;59900;50.788;12.904;2023-05-16T09:11:36;21.17;;;11.50;;
72037;SDS011;59900;50.788;12.904;2023-05-16T09:14:02;24.40;;;11.75;;
72037;SDS011;59900;50.788;12.904;2023-05-16T09:16:29;22.63;;;11.20;;
72037;SDS011;59900;50.788;12.904;2023-05-16T09:18:55;21.63;;;11.27;;
72037;SDS011;59900;50.788;12.904;2023-05-16T09:21:25;22.97;;;12.07;;
72037;SDS011;59900;50.788;12.904;2023-05-16T09:23:51;21.75;;;11.90;;
72037;SDS011;59900;50.788;12.904;2023-05-16T09:26:17;22.00;;;11.90;;
72037;SDS011;59900;50.788;12.904;2023-05-16T09:28:42;22.95;;;11.65;;
72037;SDS011;59900;50.788;12.904;2023-05-16T09:33:47;24.88;;;12.15;;
72037;SDS011;59900;50.788;12.904;2023-05-16T09:36:14;20.65;;;12.70;;
72037;SDS011;59900;50.788;12.904;2023-05-16T09:38:39;21.53;;;11.63;;
72037;SDS011;59900;50.788;12.904;2023-05-16T09:41:04;24.57;;;12.20;;
72037;SDS011;59900;50.788;12.904;2023-05-16T09:43:30;23.70;;;13.17;;
72037;SDS011;59900;50.788;12.904;2023-05-16T09:45:58;22.83;;;12.30;;
72037;SDS011;59900;50.788;12.904;2023-05-16T09:48:23;23.45;;;12.20;;
72037;SDS011;59900;50.788;12.904;2023-05-16T09:50:52;22.45;;;12.35;;
72037;SDS011;59900;50.788;12.904;2023-05-16T09:53:28;21.90;;;11.95;;
72037;SDS011;59900;50.788;12.904;2023-05-16T09:58:32;21.93;;;11.23;;
72037;SDS011;59900;50.788;12.904;2023-05-16T10:00:59;20.40;;;11.02;;
72037;SDS011;59900;50.788;12.904;2023-05-16T10:03:25;21.45;;;11.32;;
72037;SDS011;59900;50.788;12.904;2023-05-16T10:05:51;20.17;;;10.80;;
72037;SDS011;59900;50.788;12.904;2023-05-16T10:08:18;18.17;;;9.93;;
72037;SDS011;59900;50.788;12.904;2023-05-16T10:10:45;18.90;;;9.70;;
72037;SDS011;59900;50.788;12.904;2023-05-16T10:13:14;20.30;;;9.80;;
72037;SDS011;59900;50.788;12.904;2023-05-16T10:15:40;19.95;;;9.57;;
72037;SDS011;59900;50.788;12.904;2023-05-16T10:18:06;16.90;;;8.70;;
72037;SDS011;59900;50.788;12.904;2023-05-16T10:20:37;18.27;;;8.45;;
72037;SDS011;59900;50.788;12.904;2023-05-16T10:23:05;16.58;;;9.07;;
72037;SDS011;59900;50.788;12.904;2023-05-16T10:25:33;17.17;;;9.07;;
72037;SDS011;59900;50.788;12.904;2023-05-16T10:28:02;30.30;;;10.10;;
72037;SDS011;59900;50.788;12.904;2023-05-16T10:30:28;18.83;;;9.32;;
72037;SDS011;59900;50.788;12.904;2023-05-16T10:32:55;17.30;;;8.97;;
72037;SDS011;59900;50.788;12.904;2023-05-16T10:35:20;18.95;;;9.30;;
72037;SDS011;59900;50.788;12.904;2023-05-16T10:37:46;16.37;;;9.43;;
72037;SDS011;59900;50.788;12.904;2023-05-16T10:40:13;17.88;;;8.20;;
72037;SDS011;59900;50.788;12.904;2023-05-16T10:42:42;15.45;;;7.90;;
72037;SDS011;59900;50.788;12.904;2023-05-16T10:45:15;13.73;;;7.87;;
72037;SDS011;59900;50.788;12.904;2023-05-16T10:47:49;14.50;;;8.20;;
72037;SDS011;59900;50.788;12.904;2023-05-16T10:53:18;15.10;;;8.00;;
72037;SDS011;59900;50.788;12.904;2023-05-16T11:01:16;14.23;;;7.30;;
72037;SDS011;59900;50.788;12.904;2023-05-16T11:06:23;13.43;;;7.65;;
72037;SDS011;59900;50.788;12.904;2023-05-16T11:09:04;12.47;;;7.00;;
72037;SDS011;59900;50.788;12.904;2023-05-16T11:11:39;11.80;;;6.55;;
72037;SDS011;59900;50.788;12.904;2023-05-16T11:14:04;13.80;;;7.50;;
72037;SDS011;59900;50.788;12.904;2023-05-16T11:16:30;13.07;;;7.33;;
72037;SDS011;59900;50.788;12.904;2023-05-16T11:19:03;12.00;;;6.93;;
72037;SDS011;59900;50.788;12.904;2023-05-16T11:24:33;15.15;;;6.90;;
72037;SDS011;59900;50.788;12.904;2023-05-16T11:26:59;12.80;;;6.80;;
72037;SDS011;59900;50.788;12.904;2023-05-16T11:29:29;10.63;;;6.13;;
72037;SDS011;59900;50.788;12.904;2023-05-16T11:32:00;11.77;;;6.40;;
72037;SDS011;59900;50.788;12.904;2023-05-16T11:34:28;10.65;;;6.28;;
72037;SDS011;59900;50.788;12.904;2023-05-16T11:36:54;13.95;;;7.15;;
72037;SDS011;59900;50.788;12.904;2023-05-16T11:39:20;13.30;;;6.53;;
72037;SDS011;59900;50.788;12.904;2023-05-16T11:41:45;10.57;;;6.47;;
72037;SDS011;59900;50.788;12.904;2023-05-16T11:44:11;8.05;;;5.00;;
72037;SDS011;59900;50.788;12.904;2023-05-16T11:46:40;8.17;;;4.33;;
72037;SDS011;59900;50.788;12.904;2023-05-16T11:49:06;10.45;;;4.65;;
72037;SDS011;59900;50.788;12.904;2023-05-16T11:51:33;13.25;;;7.22;;
72037;SDS011;59900;50.788;12.904;2023-05-16T11:53:58;7.07;;;4.00;;
72037;SDS011;59900;50.788;12.904;2023-05-16T11:56:24;7.27;;;4.40;;
72037;SDS011;59900;50.788;12.904;2023-05-16T11:58:50;7.30;;;3.80;;
72037;SDS011;59900;50.788;12.904;2023-05-16T12:01:15;6.60;;;3.43;;
72037;SDS011;59900;50.788;12.904;2023-05-16T12:03:41;6.47;;;3.90;;
72037;SDS011;59900;50.788;12.904;2023-05-16T12:06:06;6.77;;;3.57;;
72037;SDS011;59900;50.788;12.904;2023-05-16T12:08:32;8.73;;;3.85;;
72037;SDS011;59900;50.788;12.904;2023-05-16T12:10:58;7.07;;;4.13;;
72037;SDS011;59900;50.788;12.904;2023-05-16T12:13:24;6.40;;;3.70;;
72037;SDS011;59900;50.788;12.904;2023-05-16T12:15:50;8.27;;;3.60;;
72037;SDS011;59900;50.788;12.904;2023-05-16T12:18:16;7.03;;;3.20;;
72037;SDS011;59900;50.788;12.904;2023-05-16T12:20:42;8.33;;;3.70;;
72037;SDS011;59900;50.788;12.904;2023-05-16T12:23:11;7.45;;;3.85;;
72037;SDS011;59900;50.788;12.904;2023-05-16T12:25:38;7.20;;;3.78;;
72037;SDS011;59900;50.788;12.904;2023-05-16T12:28:10;7.53;;;3.90;;
72037;SDS011;59900;50.788;12.904;2023-05-16T12:30:38;8.20;;;3.90;;
72037;SDS011;59900;50.788;12.904;2023-05-16T12:33:09;9.60;;;4.50;;
72037;SDS011;59900;50.788;12.904;2023-05-16T12:35:43;8.90;;;4.35;;
72037;SDS011;59900;50.788;12.904;2023-05-16T12:38:13;9.65;;;4.75;;
72037;SDS011;59900;50.788;12.904;2023-05-16T12:40:40;8.85;;;4.43;;
72037;SDS011;59900;50.788;12.904;2023-05-16T12:43:19;9.75;;;4.60;;
72037;SDS011;59900;50.788;12.904;2023-05-16T12:45:50;8.67;;;4.00;;
72037;SDS011;59900;50.788;12.904;2023-05-16T12:48:16;8.90;;;4.95;;
72037;SDS011;59900;50.788;12.904;2023-05-16T12:50:42;9.95;;;3.92;;
72037;SDS011;59900;50.788;12.904;2023-05-16T12:53:10;7.60;;;3.20;;
72037;SDS011;59900;50.788;12.904;2023-05-16T12:55:37;8.30;;;3.45;;
72037;SDS011;59900;50.788;12.904;2023-05-16T12:58:02;7.77;;;3.57;;
72037;SDS011;59900;50.788;12.904;2023-05-16T13:00:27;8.57;;;3.57;;
72037;SDS011;59900;50.788;12.904;2023-05-16T13:02:52;9.60;;;3.30;;
72037;SDS011;59900;50.788;12.904;2023-05-16T13:05:18;8.40;;;3.72;;
72037;SDS011;59900;50.788;12.904;2023-05-16T13:07:45;7.85;;;3.80;;
72037;SDS011;59900;50.788;12.904;2023-05-16T13:10:11;8.97;;;3.70;;
72037;SDS011;59900;50.788;12.904;2023-05-16T13:12:37;8.47;;;3.80;;
72037;SDS011;59900;50.788;12.904;2023-05-16T13:15:03;9.20;;;3.63;;
72037;SDS011;59900;50.788;12.904;2023-05-16T13:17:31;11.25;;;3.50;;
72037;SDS011;59900;50.788;12.904;2023-05-16T13:19:56;7.17;;;3.10;;
72037;SDS011;59900;50.788;12.904;2023-05-16T13:22:22;8.20;;;3.37;;
72037;SDS011;59900;50.788;12.904;2023-05-16T13:24:47;8.07;;;3.00;;
72037;SDS011;59900;50.788;12.904;2023-05-16T13:27:16;7.53;;;3.20;;
72037;SDS011;59900;50.788;12.904;2023-05-16T13:29:42;6.72;;;3.58;;
72037;SDS011;59900;50.788;12.904;2023-05-16T13:32:07;8.27;;;3.33;;
72037;SDS011;59900;50.788;12.904;2023-05-16T13:34:32;9.73;;;3.10;;
72037;SDS011;59900;50.788;12.904;2023-05-16T13:36:58;9.07;;;3.97;;
72037;SDS011;59900;50.788;12.904;2023-05-16T13:39:23;8.87;;;3.67;;
72037;SDS011;59900;50.788;12.904;2023-05-16T13:41:49;9.20;;;4.30;;
72037;SDS011;59900;50.788;12.904;2023-05-16T13:44:14;11.88;;;5.25;;
72037;SDS011;59900;50.788;12.904;2023-05-16T13:46:40;9.07;;;4.80;;
72037;SDS011;59900;50.788;12.904;2023-05-16T13:49:05;12.63;;;5.53;;
72037;SDS011;59900;50.788;12.904;2023-05-16T13:51:31;11.60;;;6.27;;
72037;SDS011;59900;50.788;12.904;2023-05-16T13:53:56;9.90;;;5.43;;
72037;SDS011;59900;50.788;12.904;2023-05-16T13:56:21;10.90;;;5.87;;
72037;SDS011;59900;50.788;12.904;2023-05-16T13:58:46;11.90;;;6.03;;
72037;SDS011;59900;50.788;12.904;2023-05-16T14:01:14;10.83;;;5.47;;
72037;SDS011;59900;50.788;12.904;2023-05-16T14:03:39;13.40;;;6.03;;
72037;SDS011;59900;50.788;12.904;2023-05-16T14:06:04;10.33;;;5.40;;
72037;SDS011;59900;50.788;12.904;2023-05-16T14:08:30;15.13;;;5.67;;
72037;SDS011;59900;50.788;12.904;2023-05-16T14:10:55;10.70;;;5.73;;
72037;SDS011;59900;50.788;12.904;2023-05-16T14:13:20;10.17;;;5.23;;
72037;SDS011;59900;50.788;12.904;2023-05-16T14:15:46;8.77;;;4.63;;
72037;SDS011;59900;50.788;12.904;2023-05-16T14:18:11;12.23;;;4.70;;
72037;SDS011;59900;50.788;12.904;2023-05-16T14:20:37;9.02;;;4.90;;
72037;SDS011;59900;50.788;12.904;2023-05-16T14:23:03;12.77;;;4.83;;
72037;SDS011;59900;50.788;12.904;2023-05-16T14:25:28;13.00;;;5.23;;
72037;SDS011;59900;50.788;12.904;2023-05-16T14:27:53;12.67;;;6.10;;
72037;SDS011;59900;50.788;12.904;2023-05-16T14:30:18;13.83;;;5.10;;
72037;SDS011;59900;50.788;12.904;2023-05-16T14:32:44;11.73;;;4.27;;
72037;SDS011;59900;50.788;12.904;2023-05-16T14:35:09;9.87;;;4.40;;
72037;SDS011;59900;50.788;12.904;2023-05-16T14:37:34;8.90;;;3.90;;
72037;SDS011;59900;50.788;12.904;2023-05-16T14:40:00;8.90;;;4.17;;
72037;SDS011;59900;50.788;12.904;2023-05-16T14:42:25;10.57;;;3.70;;